createdAt,value
2022-10-18T00:02:58.062Z,13.77
2022-10-18T00:07:59.835Z,13.65
2022-10-18T00:13:01.243Z,13.61
2022-10-18T00:18:03.143Z,13.65
2022-10-18T00:23:04.572Z,13.63
2022-10-18T00:28:06.047Z,13.74
2022-10-18T00:33:07.475Z,13.66
2022-10-18T00:38:08.854Z,13.91
2022-10-18T00:43:15.897Z,13.92
2022-10-18T00:48:20.773Z,13.87
2022-10-18T00:53:23.633Z,13.79
2022-10-18T00:58:25.400Z,13.76
2022-10-18T01:03:26.873Z,13.73
2022-10-18T01:08:44.904Z,13.66
2022-10-18T01:14:01.840Z,13.58
2022-10-18T01:19:12.161Z,13.48
2022-10-18T01:24:36.824Z,13.46
2022-10-18T01:29:53.406Z,13.47
2022-10-18T01:34:58.240Z,13.50
2022-10-18T01:40:03.588Z,13.44
2022-10-18T01:45:08.063Z,13.42
2022-10-18T01:50:09.723Z,13.32
2022-10-18T01:55:11.246Z,13.34
2022-10-18T02:00:17.237Z,13.30
2022-10-18T02:05:33.189Z,13.26
2022-10-18T02:10:38.334Z,13.19
2022-10-18T02:15:43.258Z,13.20
2022-10-18T02:20:45.541Z,13.16
2022-10-18T02:25:47.161Z,13.09
2022-10-18T02:31:30.369Z,13.01
2022-10-18T02:36:38.630Z,12.91
2022-10-18T02:41:40.729Z,12.74
2022-10-18T02:46:42.948Z,12.65
2022-10-18T02:51:44.465Z,12.55
2022-10-18T02:56:45.904Z,12.43
2022-10-18T03:01:47.375Z,12.36
2022-10-18T03:06:48.851Z,12.29
2022-10-18T03:11:50.254Z,12.19
2022-10-18T03:16:52.699Z,12.20
2022-10-18T03:21:54.195Z,12.20
2022-10-18T03:26:55.805Z,12.12
2022-10-18T03:31:57.225Z,12.20
2022-10-18T03:37:02.060Z,12.17
2022-10-18T03:42:06.228Z,12.20
2022-10-18T03:47:07.669Z,12.17
2022-10-18T03:52:09.132Z,12.09
2022-10-18T03:57:10.556Z,12.06
2022-10-18T04:02:12.091Z,11.98
2022-10-18T04:07:13.515Z,12.03
2022-10-18T04:12:14.926Z,12.11
2022-10-18T04:17:16.310Z,12.02
2022-10-18T04:22:18.055Z,11.94
2022-10-18T04:27:19.527Z,11.94
2022-10-18T04:32:20.951Z,11.91
2022-10-18T04:37:22.401Z,11.74
2022-10-18T04:42:24.483Z,11.83
2022-10-18T04:47:25.916Z,11.71
2022-10-18T04:52:27.372Z,11.63
2022-10-18T04:57:28.913Z,11.64
2022-10-18T05:02:30.798Z,11.60
2022-10-18T05:07:32.704Z,11.55
2022-10-18T05:12:34.596Z,11.43
2022-10-18T05:17:36.632Z,11.33
2022-10-18T05:22:38.211Z,11.38
2022-10-18T05:27:39.610Z,11.45
2022-10-18T05:32:41.102Z,11.45
2022-10-18T05:37:42.568Z,11.48
2022-10-18T05:42:43.984Z,11.50
2022-10-18T05:47:45.379Z,11.56
2022-10-18T05:52:46.784Z,11.50
2022-10-18T05:57:51.792Z,11.54
2022-10-18T06:02:55.268Z,11.59
2022-10-18T06:07:59.583Z,11.56
2022-10-18T06:13:01.042Z,11.61
2022-10-18T06:18:02.466Z,11.65
2022-10-18T06:23:03.938Z,11.74
2022-10-18T06:28:07.945Z,11.74
2022-10-18T06:33:14.273Z,11.80
2022-10-18T06:38:15.713Z,11.82
2022-10-18T06:43:21.096Z,11.81
2022-10-18T06:48:23.659Z,11.80
2022-10-18T06:53:26.589Z,11.80
2022-10-18T06:58:29.046Z,11.79
2022-10-18T07:03:30.539Z,11.71
2022-10-18T07:08:32.461Z,11.78
2022-10-18T07:13:34.839Z,11.86
2022-10-18T07:18:38.654Z,11.84
2022-10-18T07:23:43.692Z,11.80
2022-10-18T07:28:47.708Z,11.81
2022-10-18T07:33:49.275Z,11.59
2022-10-18T07:38:52.293Z,11.71
2022-10-18T07:43:53.748Z,11.73
2022-10-18T07:48:55.922Z,11.71
2022-10-18T07:53:57.313Z,11.65
2022-10-18T07:58:58.789Z,11.62
2022-10-18T08:04:06.062Z,11.76
2022-10-18T08:09:08.501Z,11.71
2022-10-18T08:14:09.945Z,11.68
2022-10-18T08:19:11.450Z,11.79
2022-10-18T08:24:12.908Z,12.05
2022-10-18T08:29:24.203Z,12.13
2022-10-18T08:34:27.311Z,12.10
2022-10-18T08:39:29.042Z,12.15
2022-10-18T08:44:32.642Z,12.24
2022-10-18T08:49:51.062Z,12.36
2022-10-18T08:55:00.384Z,12.41
2022-10-18T09:00:14.689Z,12.60
2022-10-18T09:05:22.896Z,12.61
2022-10-18T09:10:49.248Z,12.73
2022-10-18T09:15:59.136Z,12.77
2022-10-18T09:21:17.820Z,12.87
2022-10-18T09:26:23.359Z,12.88
2022-10-18T09:31:42.319Z,12.79
2022-10-18T09:36:45.218Z,13.03
2022-10-18T09:42:26.878Z,13.20
2022-10-18T09:47:45.406Z,13.34
2022-10-18T09:52:55.506Z,13.50
2022-10-18T09:58:01.666Z,13.58
2022-10-18T10:03:11.070Z,13.74
2022-10-18T10:08:12.661Z,13.64
2022-10-18T10:13:22.904Z,13.78
2022-10-18T10:18:31.276Z,14.20
2022-10-18T10:23:39.252Z,15.32
2022-10-18T10:28:48.595Z,15.67
2022-10-18T10:34:19.499Z,15.96
2022-10-18T10:39:24.001Z,16.59
2022-10-18T10:44:29.924Z,18.13
2022-10-18T10:49:51.635Z,17.76
2022-10-18T10:55:05.450Z,20.20
2022-10-18T11:00:36.671Z,20.29
2022-10-18T11:06:05.291Z,19.40
2022-10-18T11:11:27.745Z,20.16
2022-10-18T11:16:50.731Z,17.95
2022-10-18T11:21:53.483Z,18.23
2022-10-18T11:27:10.168Z,18.61
2022-10-18T11:33:02.831Z,19.10
2022-10-18T11:38:14.720Z,18.35
2022-10-18T11:43:44.303Z,17.11
2022-10-18T11:49:07.368Z,18.70
2022-10-18T11:54:08.742Z,18.41
2022-10-18T11:59:38.504Z,18.20
2022-10-18T12:04:58.457Z,17.65
2022-10-18T12:10:09.888Z,17.91
2022-10-18T12:15:23.702Z,17.45
2022-10-18T12:20:31.273Z,17.09
2022-10-18T12:25:37.065Z,16.97
2022-10-18T12:30:57.253Z,16.97
2022-10-18T12:35:58.711Z,17.00
2022-10-18T12:41:00.949Z,16.87
2022-10-18T12:46:13.305Z,16.94
2022-10-18T12:51:21.839Z,16.71
2022-10-18T12:56:29.297Z,16.67
2022-10-18T13:01:50.790Z,16.66
2022-10-18T13:06:58.899Z,16.64
2022-10-18T13:12:09.526Z,16.68
2022-10-18T13:17:16.875Z,16.51
2022-10-18T13:22:54.214Z,16.53
2022-10-18T13:28:14.038Z,16.58
2022-10-18T13:33:30.563Z,16.56
2022-10-18T13:39:04.417Z,16.31
2022-10-18T13:44:23.044Z,16.42
2022-10-18T13:49:40.922Z,16.28
2022-10-18T13:55:04.147Z,16.21
2022-10-18T14:00:44.854Z,16.14
2022-10-18T14:06:11.613Z,16.12
2022-10-18T14:11:16.101Z,15.76
2022-10-18T14:16:39.310Z,15.96
2022-10-18T14:21:47.725Z,15.92
2022-10-18T14:27:15.834Z,15.62
2022-10-18T14:32:29.697Z,15.77
2022-10-18T14:37:36.386Z,15.47
2022-10-18T14:42:47.972Z,15.68
2022-10-18T14:47:49.508Z,15.24
2022-10-18T14:52:51.071Z,15.24
2022-10-18T14:57:52.730Z,15.02
2022-10-18T15:02:54.413Z,14.95
2022-10-18T15:07:59.561Z,14.87
2022-10-18T15:13:09.901Z,14.68
2022-10-18T15:18:26.208Z,14.64
2022-10-18T15:23:31.313Z,14.53
2022-10-18T15:28:36.533Z,14.60
2022-10-18T15:33:38.004Z,14.39
2022-10-18T15:38:39.593Z,14.30
2022-10-18T15:43:41.005Z,14.10
2022-10-18T15:48:42.596Z,13.88
2022-10-18T15:53:51.208Z,13.89
2022-10-18T15:58:53.767Z,13.84
2022-10-18T16:08:56.636Z,13.42
2022-10-18T16:14:00.423Z,13.29
2022-10-18T16:19:02.613Z,13.28
2022-10-18T16:24:05.173Z,12.95
2022-10-18T16:29:07.623Z,12.67
2022-10-18T16:34:11.225Z,12.45
2022-10-18T16:39:15.816Z,12.44
2022-10-18T16:44:19.075Z,12.23
2022-10-18T16:49:24.086Z,12.03
2022-10-18T16:54:26.040Z,11.71
2022-10-18T16:59:29.944Z,11.63
2022-10-18T17:04:31.441Z,11.43
2022-10-18T17:09:35.008Z,11.31
2022-10-18T17:14:36.933Z,11.19
2022-10-18T17:19:38.366Z,11.11
2022-10-18T17:24:39.740Z,10.96
2022-10-18T17:29:41.217Z,10.66
2022-10-18T17:34:42.664Z,10.62
2022-10-18T17:39:44.221Z,10.59
2022-10-18T17:44:46.176Z,10.23
2022-10-18T17:49:47.821Z,10.15
2022-10-18T17:54:49.293Z,9.93
2022-10-18T17:59:50.685Z,9.88
2022-10-18T18:04:54.481Z,9.73
2022-10-18T18:09:56.048Z,9.75
2022-10-18T18:14:57.480Z,9.72
2022-10-18T18:19:58.884Z,9.66
2022-10-18T18:25:00.289Z,9.56
2022-10-18T18:30:01.677Z,9.50
2022-10-18T18:35:03.484Z,9.32
2022-10-18T18:40:05.368Z,9.27
2022-10-18T18:45:07.144Z,9.21
2022-10-18T18:50:12.800Z,9.10
2022-10-18T18:55:17.411Z,8.99
2022-10-18T19:00:21.740Z,8.87
2022-10-18T19:05:28.676Z,8.71
2022-10-18T19:10:30.696Z,8.72
2022-10-18T19:15:32.259Z,8.55
2022-10-18T19:20:36.823Z,8.49
2022-10-18T19:25:39.092Z,8.50
2022-10-18T19:30:49.798Z,8.31
2022-10-18T19:35:54.603Z,8.24
2022-10-18T19:40:57.490Z,8.24
2022-10-18T19:46:06.543Z,8.21
2022-10-18T19:51:09.613Z,8.06
2022-10-18T19:56:18.514Z,7.98
2022-10-18T20:01:20.758Z,7.84
2022-10-18T20:06:27.053Z,7.77
2022-10-18T20:11:35.489Z,7.62
2022-10-18T20:16:42.672Z,7.60
2022-10-18T20:21:44.292Z,7.51
2022-10-18T20:26:49.064Z,7.39
2022-10-18T20:31:50.735Z,7.43
2022-10-18T20:36:55.533Z,7.33
2022-10-18T20:41:58.742Z,7.29
2022-10-18T20:47:07.655Z,7.32
2022-10-18T20:52:09.433Z,7.31
2022-10-18T20:57:11.875Z,7.34
2022-10-18T21:02:13.988Z,7.35
2022-10-18T21:07:17.064Z,7.39
2022-10-18T21:12:18.805Z,7.09
2022-10-18T21:17:22.073Z,6.95
2022-10-18T21:22:25.939Z,6.82
2022-10-18T21:27:27.752Z,6.85
2022-10-18T21:32:33.444Z,6.57
2022-10-18T21:37:35.131Z,6.51
2022-10-18T21:42:36.733Z,6.45
2022-10-18T21:47:39.257Z,6.39
2022-10-18T21:52:40.761Z,6.42
2022-10-18T21:57:50.641Z,6.19
2022-10-18T22:03:09.564Z,6.15
2022-10-18T22:08:11.091Z,6.24
2022-10-18T22:13:12.611Z,6.11
2022-10-18T22:18:14.146Z,6.12
2022-10-18T22:23:16.885Z,5.98
2022-10-18T22:28:18.797Z,5.92
2022-10-18T22:33:21.309Z,5.84
2022-10-18T22:38:23.190Z,5.76
2022-10-18T22:43:24.644Z,5.61
2022-10-18T22:48:26.243Z,5.57
2022-10-18T22:53:28.045Z,5.49
2022-10-18T22:58:30.033Z,5.43
2022-10-18T23:03:33.049Z,5.41
2022-10-18T23:08:34.732Z,5.42
2022-10-18T23:13:42.532Z,5.28
2022-10-18T23:18:54.813Z,5.21
2022-10-18T23:23:57.203Z,5.16
2022-10-18T23:29:00.743Z,5.17
2022-10-18T23:34:04.928Z,5.10
2022-10-18T23:39:15.009Z,5.03
2022-10-18T23:44:16.666Z,4.92
2022-10-18T23:49:18.796Z,4.98
2022-10-18T23:54:23.423Z,4.85
2022-10-18T23:59:26.162Z,4.73
